sensor_id;sensor_type;location;lat;lon;timestamp;pressure;altitude;pressure_sealevel;temperature;humidity
9839;BME280;4958;48.150;11.506;2024-01-25T00:00:42;96096.63;;;10.28;69.27
9839;BME280;4958;48.150;11.506;2024-01-25T00:03:20;96115.91;;;10.24;69.63
9839;BME280;4958;48.150;11.506;2024-01-25T00:05:55;96121.22;;;10.23;70.13
9839;BME280;4958;48.150;11.506;2024-01-25T00:08:26;96130.56;;;10.32;70.14
9839;BME280;4958;48.150;11.506;2024-01-25T00:10:52;96135.06;;;10.30;70.41
9839;BME280;4958;48.150;11.506;2024-01-25T00:13:39;96153.72;;;10.24;70.60
9839;BME280;4958;48.150;11.506;2024-01-25T00:16:09;96167.72;;;10.29;70.96
9839;BME280;4958;48.150;11.506;2024-01-25T00:18:40;96185.56;;;10.23;71.50
9839;BME280;4958;48.150;11.506;2024-01-25T00:21:24;96221.72;;;10.13;72.72
9839;BME280;4958;48.150;11.506;2024-01-25T00:24:05;96256.25;;;10.02;73.95
9839;BME280;4958;48.150;11.506;2024-01-25T00:26:37;96264.59;;;9.96;74.32
9839;BME280;4958;48.150;11.506;2024-01-25T00:32:06;96303.69;;;10.00;75.43
9839;BME280;4958;48.150;11.506;2024-01-25T00:34:40;96300.13;;;10.01;75.17
9839;BME280;4958;48.150;11.506;2024-01-25T00:37:12;96304.31;;;10.02;75.31
9839;BME280;4958;48.150;11.506;2024-01-25T00:39:41;96294.66;;;9.96;75.21
9839;BME280;4958;48.150;11.506;2024-01-25T00:42:27;96294.66;;;9.96;75.10
9839;BME280;4958;48.150;11.506;2024-01-25T00:44:55;96290.03;;;9.99;75.03
9839;BME280;4958;48.150;11.506;2024-01-25T00:47:32;96276.81;;;10.02;74.92
9839;BME280;4958;48.150;11.506;2024-01-25T00:50:04;96260.78;;;10.09;74.45
9839;BME280;4958;48.150;11.506;2024-01-25T00:52:39;96245.66;;;10.05;73.97
9839;BME280;4958;48.150;11.506;2024-01-25T00:55:14;96235.03;;;10.00;74.04
9839;BME280;4958;48.150;11.506;2024-01-25T00:57:45;96229.38;;;9.89;73.68
9839;BME280;4958;48.150;11.506;2024-01-25T01:00:13;96229.88;;;9.92;73.71
9839;BME280;4958;48.150;11.506;2024-01-25T01:02:43;96236.78;;;9.92;73.96
9839;BME280;4958;48.150;11.506;2024-01-25T01:05:10;96218.63;;;10.01;73.38
9839;BME280;4958;48.150;11.506;2024-01-25T01:07:38;96205.44;;;9.96;73.22
9839;BME280;4958;48.150;11.506;2024-01-25T01:10:06;96219.13;;;10.05;72.91
9839;BME280;4958;48.150;11.506;2024-01-25T01:12:33;96201.75;;;9.99;72.76
9839;BME280;4958;48.150;11.506;2024-01-25T01:15:01;96208.50;;;10.00;72.57
9839;BME280;4958;48.150;11.506;2024-01-25T01:17:27;96222.97;;;10.01;72.58
9839;BME280;4958;48.150;11.506;2024-01-25T01:19:55;96223.47;;;10.13;72.27
9839;BME280;4958;48.150;11.506;2024-01-25T01:22:21;96211.72;;;10.10;71.86
9839;BME280;4958;48.150;11.506;2024-01-25T01:24:48;96222.34;;;10.07;72.09
9839;BME280;4958;48.150;11.506;2024-01-25T01:27:16;96212.38;;;10.12;72.14
9839;BME280;4958;48.150;11.506;2024-01-25T01:29:45;96212.38;;;10.12;71.71
9839;BME280;4958;48.150;11.506;2024-01-25T01:32:12;96209.50;;;10.15;71.79
9839;BME280;4958;48.150;11.506;2024-01-25T01:34:38;96205.69;;;10.19;71.72
9839;BME280;4958;48.150;11.506;2024-01-25T01:37:06;96213.22;;;10.21;71.98
9839;BME280;4958;48.150;11.506;2024-01-25T01:39:34;96209.00;;;10.12;72.12
9839;BME280;4958;48.150;11.506;2024-01-25T01:42:01;96206.13;;;10.15;71.85
9839;BME280;4958;48.150;11.506;2024-01-25T01:44:28;96205.63;;;10.11;72.26
9839;BME280;4958;48.150;11.506;2024-01-25T01:46:54;96204.50;;;10.14;72.17
9839;BME280;4958;48.150;11.506;2024-01-25T01:49:21;96217.38;;;10.14;72.24
9839;BME280;4958;48.150;11.506;2024-01-25T01:51:52;96213.03;;;10.14;72.23
9839;BME280;4958;48.150;11.506;2024-01-25T01:54:20;96214.81;;;10.22;72.05
9839;BME280;4958;48.150;11.506;2024-01-25T01:56:47;96212.28;;;10.30;72.07
9839;BME280;4958;48.150;11.506;2024-01-25T01:59:15;96198.13;;;10.26;71.90
9839;BME280;4958;48.150;11.506;2024-01-25T02:01:42;96203.56;;;10.23;72.03
9839;BME280;4958;48.150;11.506;2024-01-25T02:04:09;96197.31;;;10.25;71.81
9839;BME280;4958;48.150;11.506;2024-01-25T02:06:36;96197.31;;;10.25;71.97
9839;BME280;4958;48.150;11.506;2024-01-25T02:09:02;96191.34;;;10.25;71.71
9839;BME280;4958;48.150;11.506;2024-01-25T02:11:31;96201.00;;;10.23;72.25
9839;BME280;4958;48.150;11.506;2024-01-25T02:13:58;96208.53;;;10.16;72.22
9839;BME280;4958;48.150;11.506;2024-01-25T02:16:24;96213.06;;;10.22;72.42
9839;BME280;4958;48.150;11.506;2024-01-25T02:18:50;96207.91;;;10.22;72.63
9839;BME280;4958;48.150;11.506;2024-01-25T02:21:19;96215.78;;;10.21;72.65
9839;BME280;4958;48.150;11.506;2024-01-25T02:23:47;96232.50;;;10.17;72.94
9839;BME280;4958;48.150;11.506;2024-01-25T02:26:13;96239.38;;;10.08;73.38
9839;BME280;4958;48.150;11.506;2024-01-25T02:28:40;96257.91;;;10.12;73.30
9839;BME280;4958;48.150;11.506;2024-01-25T02:31:07;96251.47;;;10.16;73.26
9839;BME280;4958;48.150;11.506;2024-01-25T02:33:35;96241.84;;;10.18;73.27
9839;BME280;4958;48.150;11.506;2024-01-25T02:36:02;96228.50;;;10.22;73.05
9839;BME280;4958;48.150;11.506;2024-01-25T02:38:31;96232.50;;;10.17;73.32
9839;BME280;4958;48.150;11.506;2024-01-25T02:41:01;96239.25;;;10.18;73.52
9839;BME280;4958;48.150;11.506;2024-01-25T02:43:27;96232.50;;;10.17;73.49
9839;BME280;4958;48.150;11.506;2024-01-25T02:45:54;96240.34;;;10.07;74.00
9839;BME280;4958;48.150;11.506;2024-01-25T02:48:20;96256.13;;;10.12;74.05
9839;BME280;4958;48.150;11.506;2024-01-25T02:50:47;96251.63;;;10.14;74.07
9839;BME280;4958;48.150;11.506;2024-01-25T02:53:13;96257.09;;;10.11;74.18
9839;BME280;4958;48.150;11.506;2024-01-25T02:55:43;96273.63;;;10.00;74.64
9839;BME280;4958;48.150;11.506;2024-01-25T02:58:11;96272.84;;;10.08;74.56
9839;BME280;4958;48.150;11.506;2024-01-25T03:00:37;96278.31;;;10.13;74.60
9839;BME280;4958;48.150;11.506;2024-01-25T03:03:04;96275.44;;;10.16;74.61
9839;BME280;4958;48.150;11.506;2024-01-25T03:05:31;96274.75;;;10.06;74.66
9839;BME280;4958;48.150;11.506;2024-01-25T03:08:05;96275.72;;;10.05;75.09
9839;BME280;4958;48.150;11.506;2024-01-25T03:10:31;96280.91;;;10.13;74.48
9839;BME280;4958;48.150;11.506;2024-01-25T03:12:58;96281.34;;;10.09;74.79
9839;BME280;4958;48.150;11.506;2024-01-25T03:15:27;96275.09;;;10.11;74.83
9839;BME280;4958;48.150;11.506;2024-01-25T03:17:55;96276.56;;;10.14;74.79
9839;BME280;4958;48.150;11.506;2024-01-25T03:20:21;96284.13;;;10.15;74.88
9839;BME280;4958;48.150;11.506;2024-01-25T03:22:51;96287.16;;;10.11;74.92
9839;BME280;4958;48.150;11.506;2024-01-25T03:25:17;96291.66;;;10.09;75.56
9839;BME280;4958;48.150;11.506;2024-01-25T03:27:44;96283.78;;;10.10;75.48
9839;BME280;4958;48.150;11.506;2024-01-25T03:30:13;96277.16;;;10.08;75.76
9839;BME280;4958;48.150;11.506;2024-01-25T03:32:46;96283.72;;;9.94;76.85
9839;BME280;4958;48.150;11.506;2024-01-25T03:35:12;96297.91;;;9.98;77.07
9839;BME280;4958;48.150;11.506;2024-01-25T03:37:39;96310.75;;;9.98;77.00
9839;BME280;4958;48.150;11.506;2024-01-25T03:40:08;96315.75;;;9.99;77.19
9839;BME280;4958;48.150;11.506;2024-01-25T03:42:34;96315.63;;;10.09;77.08
9839;BME280;4958;48.150;11.506;2024-01-25T03:45:01;96307.69;;;10.02;77.22
9839;BME280;4958;48.150;11.506;2024-01-25T03:47:27;96319.59;;;10.03;77.27
9839;BME280;4958;48.150;11.506;2024-01-25T03:49:55;96331.50;;;9.96;77.68
9839;BME280;4958;48.150;11.506;2024-01-25T03:52:24;96337.28;;;9.98;77.54
9839;BME280;4958;48.150;11.506;2024-01-25T03:54:50;96333.56;;;9.93;77.22
9839;BME280;4958;48.150;11.506;2024-01-25T03:57:18;96338.06;;;9.91;77.24
9839;BME280;4958;48.150;11.506;2024-01-25T03:59:45;96326.66;;;9.93;77.14
9839;BME280;4958;48.150;11.506;2024-01-25T04:02:11;96337.75;;;10.02;77.13
9839;BME280;4958;48.150;11.506;2024-01-25T04:04:38;96330.38;;;9.99;77.04
9839;BME280;4958;48.150;11.506;2024-01-25T04:07:09;96336.00;;;10.02;76.71
9839;BME280;4958;48.150;11.506;2024-01-25T04:09:36;96335.53;;;9.99;76.46
9839;BME280;4958;48.150;11.506;2024-01-25T04:12:02;96325.09;;;10.00;76.75
9839;BME280;4958;48.150;11.506;2024-01-25T04:14:29;96328.13;;;10.04;76.75
9839;BME280;4958;48.150;11.506;2024-01-25T04:16:55;96316.22;;;10.03;76.53
9839;BME280;4958;48.150;11.506;2024-01-25T04:19:24;96350.63;;;10.02;77.07
9839;BME280;4958;48.150;11.506;2024-01-25T04:21:50;96363.25;;;9.87;77.51
9839;BME280;4958;48.150;11.506;2024-01-25T04:24:18;96361.56;;;9.96;77.46
9839;BME280;4958;48.150;11.506;2024-01-25T04:26:45;96377.75;;;9.88;77.89
9839;BME280;4958;48.150;11.506;2024-01-25T04:29:12;96387.22;;;9.88;77.96
9839;BME280;4958;48.150;11.506;2024-01-25T04:31:42;96394.34;;;9.94;78.25
9839;BME280;4958;48.150;11.506;2024-01-25T04:34:09;96390.81;;;9.95;78.07
9839;BME280;4958;48.150;11.506;2024-01-25T04:36:35;96408.81;;;9.95;78.31
9839;BME280;4958;48.150;11.506;2024-01-25T04:39:02;96410.06;;;9.91;78.48
9839;BME280;4958;48.150;11.506;2024-01-25T04:41:30;96409.25;;;9.90;78.35
9839;BME280;4958;48.150;11.506;2024-01-25T04:43:59;96425.94;;;9.86;78.98
9839;BME280;4958;48.150;11.506;2024-01-25T04:46:25;96427.22;;;9.82;79.53
9839;BME280;4958;48.150;11.506;2024-01-25T04:48:52;96443.13;;;9.78;79.45
9839;BME280;4958;48.150;11.506;2024-01-25T04:51:19;96441.19;;;9.80;79.81
9839;BME280;4958;48.150;11.506;2024-01-25T04:53:46;96426.91;;;9.85;79.19
9839;BME280;4958;48.150;11.506;2024-01-25T04:56:17;96437.75;;;9.71;79.84
9839;BME280;4958;48.150;11.506;2024-01-25T04:58:48;96449.81;;;9.70;79.91
9839;BME280;4958;48.150;11.506;2024-01-25T05:01:14;96453.25;;;9.79;79.67
9839;BME280;4958;48.150;11.506;2024-01-25T05:03:41;96452.13;;;9.82;79.65
9839;BME280;4958;48.150;11.506;2024-01-25T05:06:09;96468.31;;;9.74;80.50
9839;BME280;4958;48.150;11.506;2024-01-25T05:08:36;96480.38;;;9.74;80.65
9839;BME280;4958;48.150;11.506;2024-01-25T05:11:02;96479.69;;;9.72;80.71
9839;BME280;4958;48.150;11.506;2024-01-25T05:13:29;96481.69;;;9.78;80.64
9839;BME280;4958;48.150;11.506;2024-01-25T05:15:56;96478.81;;;9.81;80.49
9839;BME280;4958;48.150;11.506;2024-01-25T05:18:23;96471.91;;;9.81;80.13
9839;BME280;4958;48.150;11.506;2024-01-25T05:20:49;96527.22;;;9.85;82.49
9839;BME280;4958;48.150;11.506;2024-01-25T05:23:16;96488.13;;;9.82;79.86
9839;BME280;4958;48.150;11.506;2024-01-25T05:25:42;96486.31;;;9.74;80.24
9839;BME280;4958;48.150;11.506;2024-01-25T05:28:09;96490.50;;;9.75;80.29
9839;BME280;4958;48.150;11.506;2024-01-25T05:30:35;96493.00;;;9.67;80.48
9839;BME280;4958;48.150;11.506;2024-01-25T05:33:04;96518.19;;;9.63;81.00
9839;BME280;4958;48.150;11.506;2024-01-25T05:35:30;96515.19;;;9.68;81.17
9839;BME280;4958;48.150;11.506;2024-01-25T05:37:58;96509.31;;;9.76;80.67
9839;BME280;4958;48.150;11.506;2024-01-25T05:40:25;96501.00;;;9.82;80.64
9839;BME280;4958;48.150;11.506;2024-01-25T05:42:51;96505.03;;;9.84;80.47
9839;BME280;4958;48.150;11.506;2024-01-25T05:45:18;96499.59;;;9.87;80.09
9839;BME280;4958;48.150;11.506;2024-01-25T05:47:47;96495.53;;;9.85;80.04
9839;BME280;4958;48.150;11.506;2024-01-25T05:50:15;96488.47;;;9.61;80.22
9839;BME280;4958;48.150;11.506;2024-01-25T05:52:42;96502.56;;;9.57;80.50
9839;BME280;4958;48.150;11.506;2024-01-25T05:55:09;96532.19;;;9.61;80.68
9839;BME280;4958;48.150;11.506;2024-01-25T05:57:36;96530.91;;;9.65;80.88
9839;BME280;4958;48.150;11.506;2024-01-25T06:00:07;96535.38;;;9.63;80.97
9839;BME280;4958;48.150;11.506;2024-01-25T06:02:36;96549.06;;;9.63;81.00
9839;BME280;4958;48.150;11.506;2024-01-25T06:05:03;96546.00;;;9.60;81.38
9839;BME280;4958;48.150;11.506;2024-01-25T06:07:31;96550.00;;;9.62;81.06
9839;BME280;4958;48.150;11.506;2024-01-25T06:09:57;96550.00;;;9.62;81.04
9839;BME280;4958;48.150;11.506;2024-01-25T06:12:31;96562.22;;;9.60;81.36
9839;BME280;4958;48.150;11.506;2024-01-25T06:14:58;96555.31;;;9.61;80.71
9839;BME280;4958;48.150;11.506;2024-01-25T06:17:25;96547.75;;;9.59;80.80
9839;BME280;4958;48.150;11.506;2024-01-25T06:19:52;96550.47;;;9.58;80.81
9839;BME280;4958;48.150;11.506;2024-01-25T06:22:27;96545.63;;;9.55;80.58
9839;BME280;4958;48.150;11.506;2024-01-25T06:24:55;96550.09;;;9.53;80.83
9839;BME280;4958;48.150;11.506;2024-01-25T06:27:22;96558.38;;;9.64;80.42
9839;BME280;4958;48.150;11.506;2024-01-25T06:29:48;96550.66;;;9.64;79.78
9839;BME280;4958;48.150;11.506;2024-01-25T06:32:17;96556.84;;;9.72;79.44
9839;BME280;4958;48.150;11.506;2024-01-25T06:34:44;96550.00;;;9.62;79.25
9839;BME280;4958;48.150;11.506;2024-01-25T06:37:10;96564.13;;;9.58;79.39
9839;BME280;4958;48.150;11.506;2024-01-25T06:39:37;96559.94;;;9.57;79.03
9839;BME280;4958;48.150;11.506;2024-01-25T06:42:05;96550.31;;;9.59;78.90
9839;BME280;4958;48.150;11.506;2024-01-25T06:44:37;96543.41;;;9.60;78.86
9839;BME280;4958;48.150;11.506;2024-01-25T06:47:04;96543.31;;;9.52;78.92
9839;BME280;4958;48.150;11.506;2024-01-25T06:49:35;96543.84;;;9.55;78.82
9839;BME280;4958;48.150;11.506;2024-01-25T06:52:42;96546.03;;;9.50;78.74
9839;BME280;4958;48.150;11.506;2024-01-25T06:55:33;96541.84;;;9.49;78.75
9839;BME280;4958;48.150;11.506;2024-01-25T06:58:45;96545.00;;;9.43;78.34
9839;BME280;4958;48.150;11.506;2024-01-25T07:01:12;96550.13;;;9.43;78.06
9839;BME280;4958;48.150;11.506;2024-01-25T07:03:58;96548.09;;;9.47;77.95
9839;BME280;4958;48.150;11.506;2024-01-25T07:06:34;96539.56;;;9.46;77.59
9839;BME280;4958;48.150;11.506;2024-01-25T07:09:02;96540.66;;;9.44;77.06
9839;BME280;4958;48.150;11.506;2024-01-25T07:11:31;96552.13;;;9.49;77.80
9839;BME280;4958;48.150;11.506;2024-01-25T07:13:59;96580.69;;;9.46;78.11
9839;BME280;4958;48.150;11.506;2024-01-25T07:16:25;96556.41;;;9.41;77.45
9839;BME280;4958;48.150;11.506;2024-01-25T07:18:54;96542.94;;;9.47;77.06
9839;BME280;4958;48.150;11.506;2024-01-25T07:21:26;96536.44;;;9.52;76.85
9839;BME280;4958;48.150;11.506;2024-01-25T07:23:53;96526.53;;;9.57;76.29
9839;BME280;4958;48.150;11.506;2024-01-25T07:26:22;96518.50;;;9.60;75.78
9839;BME280;4958;48.150;11.506;2024-01-25T07:28:49;96518.84;;;9.65;76.00
9839;BME280;4958;48.150;11.506;2024-01-25T07:31:24;96521.66;;;9.72;76.07
9839;BME280;4958;48.150;11.506;2024-01-25T07:33:51;96507.13;;;9.81;75.20
9839;BME280;4958;48.150;11.506;2024-01-25T07:36:17;96514.84;;;9.81;75.18
9839;BME280;4958;48.150;11.506;2024-01-25T07:38:44;96525.94;;;9.81;75.24
9839;BME280;4958;48.150;11.506;2024-01-25T07:41:12;96556.03;;;9.89;76.67
9839;BME280;4958;48.150;11.506;2024-01-25T07:43:38;96669.31;;;10.15;80.13
9839;BME280;4958;48.150;11.506;2024-01-25T07:46:05;96651.38;;;10.41;78.74
9839;BME280;4958;48.150;11.506;2024-01-25T07:48:33;96637.25;;;10.45;79.09
9839;BME280;4958;48.150;11.506;2024-01-25T07:51:00;96706.47;;;10.48;81.08
9839;BME280;4958;48.150;11.506;2024-01-25T07:53:27;96616.00;;;10.43;77.11
9839;BME280;4958;48.150;11.506;2024-01-25T07:55:53;96627.25;;;10.42;78.53
9839;BME280;4958;48.150;11.506;2024-01-25T07:58:19;96530.59;;;10.47;74.42
9839;BME280;4958;48.150;11.506;2024-01-25T08:00:46;96470.91;;;10.52;72.88
9839;BME280;4958;48.150;11.506;2024-01-25T08:03:16;96445.13;;;10.44;72.54
9839;BME280;4958;48.150;11.506;2024-01-25T08:06:07;96428.59;;;10.20;72.15
9839;BME280;4958;48.150;11.506;2024-01-25T08:08:33;96447.59;;;10.19;72.47
9839;BME280;4958;48.150;11.506;2024-01-25T08:11:03;96448.09;;;10.05;72.61
9839;BME280;4958;48.150;11.506;2024-01-25T08:13:35;96430.19;;;9.95;72.41
9839;BME280;4958;48.150;11.506;2024-01-25T08:16:01;96427.63;;;9.95;72.10
9839;BME280;4958;48.150;11.506;2024-01-25T08:18:28;96410.94;;;9.99;71.91
9839;BME280;4958;48.150;11.506;2024-01-25T08:20:56;96395.16;;;9.94;71.22
9839;BME280;4958;48.150;11.506;2024-01-25T08:23:48;96386.63;;;9.94;70.82
9839;BME280;4958;48.150;11.506;2024-01-25T08:26:15;96395.00;;;9.96;71.35
9839;BME280;4958;48.150;11.506;2024-01-25T08:28:45;96369.19;;;9.80;70.89
9839;BME280;4958;48.150;11.506;2024-01-25T08:31:15;96389.03;;;9.69;71.40
9839;BME280;4958;48.150;11.506;2024-01-25T08:33:41;96398.22;;;9.72;71.45
9839;BME280;4958;48.150;11.506;2024-01-25T08:36:09;96390.56;;;9.80;71.08
9839;BME280;4958;48.150;11.506;2024-01-25T08:38:36;96372.00;;;9.94;70.78
9839;BME280;4958;48.150;11.506;2024-01-25T08:41:07;96346.06;;;9.88;70.04
9839;BME280;4958;48.150;11.506;2024-01-25T08:43:33;96367.09;;;9.83;70.62
9839;BME280;4958;48.150;11.506;2024-01-25T08:46:00;96349.56;;;10.13;69.90
9839;BME280;4958;48.150;11.506;2024-01-25T08:48:27;96334.97;;;10.21;69.47
9839;BME280;4958;48.150;11.506;2024-01-25T08:50:53;96350.34;;;10.39;69.54
9839;BME280;4958;48.150;11.506;2024-01-25T08:53:23;96330.94;;;10.69;68.44
9839;BME280;4958;48.150;11.506;2024-01-25T08:55:52;96310.34;;;11.26;67.35
9839;BME280;4958;48.150;11.506;2024-01-25T08:58:20;96209.13;;;11.40;65.53
9839;BME280;4958;48.150;11.506;2024-01-25T09:00:46;96219.78;;;11.29;65.68
9839;BME280;4958;48.150;11.506;2024-01-25T09:03:14;96191.63;;;11.66;64.83
9839;BME280;4958;48.150;11.506;2024-01-25T09:05:40;96095.94;;;11.84;62.92
9839;BME280;4958;48.150;11.506;2024-01-25T09:08:21;96047.78;;;12.14;62.00
9839;BME280;4958;48.150;11.506;2024-01-25T09:10:47;95993.34;;;12.38;60.63
9839;BME280;4958;48.150;11.506;2024-01-25T09:13:17;95955.94;;;12.64;59.85
9839;BME280;4958;48.150;11.506;2024-01-25T09:15:45;95846.47;;;12.65;58.13
9839;BME280;4958;48.150;11.506;2024-01-25T09:18:14;95871.22;;;12.95;58.35
9839;BME280;4958;48.150;11.506;2024-01-25T09:20:40;95815.34;;;13.16;57.47
9839;BME280;4958;48.150;11.506;2024-01-25T09:23:12;95740.22;;;12.74;56.29
9839;BME280;4958;48.150;11.506;2024-01-25T09:25:39;95724.72;;;12.32;56.34
9839;BME280;4958;48.150;11.506;2024-01-25T09:28:06;95812.09;;;12.28;57.67
9839;BME280;4958;48.150;11.506;2024-01-25T09:30:33;95819.84;;;12.64;56.98
9839;BME280;4958;48.150;11.506;2024-01-25T09:33:01;95758.72;;;12.99;55.88
9839;BME280;4958;48.150;11.506;2024-01-25T09:35:27;95731.88;;;13.22;55.66
9839;BME280;4958;48.150;11.506;2024-01-25T09:37:55;95618.03;;;13.49;53.82
9839;BME280;4958;48.150;11.506;2024-01-25T09:40:21;95564.31;;;13.52;53.21
9839;BME280;4958;48.150;11.506;2024-01-25T09:42:48;95554.56;;;13.54;53.19
9839;BME280;4958;48.150;11.506;2024-01-25T09:45:16;95508.59;;;13.42;52.65
9839;BME280;4958;48.150;11.506;2024-01-25T09:47:43;95434.53;;;13.28;51.95
9839;BME280;4958;48.150;11.506;2024-01-25T09:50:11;95480.34;;;13.54;52.45
9839;BME280;4958;48.150;11.506;2024-01-25T09:52:38;95414.28;;;13.58;51.35
9839;BME280;4958;48.150;11.506;2024-01-25T09:55:07;95428.03;;;13.85;51.73
9839;BME280;4958;48.150;11.506;2024-01-25T09:57:35;95399.13;;;13.88;51.25
9839;BME280;4958;48.150;11.506;2024-01-25T10:00:06;95387.19;;;14.00;50.95
9839;BME280;4958;48.150;11.506;2024-01-25T10:02:39;95396.91;;;14.05;51.21
9839;BME280;4958;48.150;11.506;2024-01-25T10:05:08;95375.84;;;14.01;50.97
9839;BME280;4958;48.150;11.506;2024-01-25T10:07:37;95352.38;;;13.83;50.60
9839;BME280;4958;48.150;11.506;2024-01-25T10:10:04;95447.50;;;13.48;51.42
9839;BME280;4958;48.150;11.506;2024-01-25T10:12:31;95498.25;;;13.56;51.19
9839;BME280;4958;48.150;11.506;2024-01-25T10:14:57;95540.66;;;13.55;51.52
9839;BME280;4958;48.150;11.506;2024-01-25T10:17:24;95602.03;;;13.33;52.37
9839;BME280;4958;48.150;11.506;2024-01-25T10:19:51;95581.81;;;13.08;52.34
9839;BME280;4958;48.150;11.506;2024-01-25T10:22:29;95613.38;;;12.97;52.33
9839;BME280;4958;48.150;11.506;2024-01-25T11:02:34;95792.13;;;11.86;54.63
9839;BME280;4958;48.150;11.506;2024-01-25T11:09:34;95789.41;;;12.24;54.52
9839;BME280;4958;48.150;11.506;2024-01-25T11:12:22;95764.91;;;12.56;54.07
9839;BME280;4958;48.150;11.506;2024-01-25T11:15:17;95766.31;;;12.58;54.12
9839;BME280;4958;48.150;11.506;2024-01-25T11:18:24;95758.50;;;12.73;54.20
9839;BME280;4958;48.150;11.506;2024-01-25T11:21:22;95732.00;;;12.86;53.72
9839;BME280;4958;48.150;11.506;2024-01-25T11:23:49;95828.50;;;12.99;55.53
9839;BME280;4958;48.150;11.506;2024-01-25T11:26:17;96036.25;;;13.13;58.49
9839;BME280;4958;48.150;11.506;2024-01-25T11:29:08;95991.25;;;13.07;58.03
9839;BME280;4958;48.150;11.506;2024-01-25T11:31:41;95736.50;;;13.05;53.71
9839;BME280;4958;48.150;11.506;2024-01-25T11:34:10;95706.22;;;12.99;53.44
9839;BME280;4958;48.150;11.506;2024-01-25T11:36:38;95692.09;;;12.95;53.52
9839;BME280;4958;48.150;11.506;2024-01-25T11:39:05;95700.63;;;12.95;53.53
9839;BME280;4958;48.150;11.506;2024-01-25T11:41:32;95665.13;;;13.04;52.78
9839;BME280;4958;48.150;11.506;2024-01-25T11:43:58;95636.34;;;13.13;52.74
9839;BME280;4958;48.150;11.506;2024-01-25T11:46:25;95650.94;;;13.21;52.88
9839;BME280;4958;48.150;11.506;2024-01-25T11:48:52;95632.47;;;13.24;52.72
9839;BME280;4958;48.150;11.506;2024-01-25T11:51:19;95623.56;;;13.40;52.55
9839;BME280;4958;48.150;11.506;2024-01-25T11:53:49;95625.97;;;13.48;52.54
9839;BME280;4958;48.150;11.506;2024-01-25T11:56:19;95560.13;;;13.51;51.48
9839;BME280;4958;48.150;11.506;2024-01-25T11:58:46;95515.75;;;13.47;50.75
9839;BME280;4958;48.150;11.506;2024-01-25T12:01:14;95475.56;;;13.38;50.31
9839;BME280;4958;48.150;11.506;2024-01-25T12:03:41;95500.59;;;13.31;50.99
9839;BME280;4958;48.150;11.506;2024-01-25T12:06:08;95500.81;;;13.36;50.78
9839;BME280;4958;48.150;11.506;2024-01-25T12:08:36;95485.47;;;13.28;50.54
9839;BME280;4958;48.150;11.506;2024-01-25T12:11:04;95469.72;;;13.16;50.58
9839;BME280;4958;48.150;11.506;2024-01-25T12:13:34;95496.72;;;13.07;51.02
9839;BME280;4958;48.150;11.506;2024-01-25T12:16:02;95497.28;;;12.96;51.13
9839;BME280;4958;48.150;11.506;2024-01-25T12:18:29;95507.00;;;12.94;51.54
9839;BME280;4958;48.150;11.506;2024-01-25T12:20:58;95511.19;;;12.95;51.21
9839;BME280;4958;48.150;11.506;2024-01-25T12:23:30;95523.22;;;13.16;51.26
9839;BME280;4958;48.150;11.506;2024-01-25T12:26:00;95549.53;;;13.26;51.65
9839;BME280;4958;48.150;11.506;2024-01-25T12:28:27;95544.06;;;13.14;51.51
9839;BME280;4958;48.150;11.506;2024-01-25T12:30:55;95589.25;;;13.18;52.18
9839;BME280;4958;48.150;11.506;2024-01-25T12:33:22;95581.94;;;13.28;52.02
9839;BME280;4958;48.150;11.506;2024-01-25T12:35:48;95587.97;;;13.42;51.94
9839;BME280;4958;48.150;11.506;2024-01-25T12:38:15;95543.44;;;13.60;51.46
9839;BME280;4958;48.150;11.506;2024-01-25T12:40:41;95498.06;;;13.57;50.49
9839;BME280;4958;48.150;11.506;2024-01-25T12:43:09;95480.50;;;13.33;50.41
9839;BME280;4958;48.150;11.506;2024-01-25T12:45:35;95501.97;;;13.20;51.25
9839;BME280;4958;48.150;11.506;2024-01-25T12:48:02;95512.41;;;12.99;51.27
9839;BME280;4958;48.150;11.506;2024-01-25T12:50:31;95513.34;;;12.91;51.50
9839;BME280;4958;48.150;11.506;2024-01-25T12:52:58;95513.88;;;12.73;51.91
9839;BME280;4958;48.150;11.506;2024-01-25T12:55:26;95538.91;;;12.73;51.89
9839;BME280;4958;48.150;11.506;2024-01-25T12:57:55;95568.50;;;12.70;52.29
9839;BME280;4958;48.150;11.506;2024-01-25T13:00:32;95556.31;;;12.58;52.17
9839;BME280;4958;48.150;11.506;2024-01-25T13:02:58;95581.19;;;12.65;52.88
9839;BME280;4958;48.150;11.506;2024-01-25T13:05:26;95605.94;;;12.53;53.19
9839;BME280;4958;48.150;11.506;2024-01-25T13:07:53;95605.19;;;12.59;52.82
9839;BME280;4958;48.150;11.506;2024-01-25T13:10:22;95617.50;;;12.57;53.05
9839;BME280;4958;48.150;11.506;2024-01-25T13:12:48;95623.38;;;12.44;53.60
9839;BME280;4958;48.150;11.506;2024-01-25T13:15:16;95643.78;;;12.39;53.73
9839;BME280;4958;48.150;11.506;2024-01-25T13:17:44;95644.56;;;12.40;53.85
9839;BME280;4958;48.150;11.506;2024-01-25T13:20:11;95647.69;;;12.35;53.94
9839;BME280;4958;48.150;11.506;2024-01-25T13:22:44;95651.09;;;12.36;53.61
9839;BME280;4958;48.150;11.506;2024-01-25T13:25:10;95640.38;;;12.39;53.76
9839;BME280;4958;48.150;11.506;2024-01-25T13:27:37;95672.06;;;12.26;54.38
9839;BME280;4958;48.150;11.506;2024-01-25T13:30:05;95669.91;;;12.30;54.18
9839;BME280;4958;48.150;11.506;2024-01-25T13:32:31;95652.31;;;12.19;53.91
9839;BME280;4958;48.150;11.506;2024-01-25T13:34:59;95649.66;;;12.33;53.69
9839;BME280;4958;48.150;11.506;2024-01-25T13:37:25;95649.13;;;12.38;53.71
9839;BME280;4958;48.150;11.506;2024-01-25T13:40:17;95638.06;;;12.44;53.71
9839;BME280;4958;48.150;11.506;2024-01-25T13:42:46;95626.94;;;12.43;53.75
9839;BME280;4958;48.150;11.506;2024-01-25T13:45:22;95636.72;;;12.48;53.54
9839;BME280;4958;48.150;11.506;2024-01-25T13:47:58;95585.66;;;12.50;53.00
9839;BME280;4958;48.150;11.506;2024-01-25T13:50:26;95569.69;;;12.40;52.93
9839;BME280;4958;48.150;11.506;2024-01-25T13:52:52;95582.41;;;12.41;53.32
9839;BME280;4958;48.150;11.506;2024-01-25T13:55:19;95557.53;;;12.34;53.07
9839;BME280;4958;48.150;11.506;2024-01-25T13:57:47;95551.72;;;12.25;52.83
9839;BME280;4958;48.150;11.506;2024-01-25T14:00:14;95548.53;;;12.23;52.80
9839;BME280;4958;48.150;11.506;2024-01-25T14:02:41;95557.50;;;12.27;52.97
9839;BME280;4958;48.150;11.506;2024-01-25T14:05:10;95571.38;;;12.26;53.01
9839;BME280;4958;48.150;11.506;2024-01-25T14:07:40;95589.31;;;12.13;53.70
9839;BME280;4958;48.150;11.506;2024-01-25T14:10:08;95590.91;;;12.14;53.63